sensor_id;sensor_type;location;lat;lon;timestamp;P1;durP1;ratioP1;P2;durP2;ratioP2
76964;SDS011;65903;51.452;7.198;2023-06-10T00:00:48;8.70;;;6.30;;
76964;SDS011;65903;51.452;7.198;2023-06-10T00:01:49;7.30;;;6.20;;
76964;SDS011;65903;51.452;7.198;2023-06-10T00:02:49;8.82;;;6.35;;
76964;SDS011;65903;51.452;7.198;2023-06-10T00:03:50;8.13;;;6.18;;
76964;SDS011;65903;51.452;7.198;2023-06-10T00:04:51;10.07;;;6.03;;
76964;SDS011;65903;51.452;7.198;2023-06-10T00:05:52;10.05;;;6.25;;
76964;SDS011;65903;51.452;7.198;2023-06-10T00:06:53;7.35;;;5.75;;
76964;SDS011;65903;51.452;7.198;2023-06-10T00:07:54;6.85;;;5.90;;
76964;SDS011;65903;51.452;7.198;2023-06-10T00:08:55;6.97;;;5.88;;
76964;SDS011;65903;51.452;7.198;2023-06-10T00:09:56;7.53;;;6.43;;
76964;SDS011;65903;51.452;7.198;2023-06-10T00:10:57;7.40;;;5.97;;
76964;SDS011;65903;51.452;7.198;2023-06-10T00:11:58;8.52;;;6.32;;
76964;SDS011;65903;51.452;7.198;2023-06-10T00:13:02;7.50;;;6.07;;
76964;SDS011;65903;51.452;7.198;2023-06-10T00:14:04;8.50;;;5.95;;
76964;SDS011;65903;51.452;7.198;2023-06-10T00:15:05;8.30;;;6.53;;
76964;SDS011;65903;51.452;7.198;2023-06-10T00:16:07;9.20;;;6.40;;
76964;SDS011;65903;51.452;7.198;2023-06-10T00:17:08;8.32;;;6.88;;
76964;SDS011;65903;51.452;7.198;2023-06-10T00:18:11;7.68;;;6.45;;
76964;SDS011;65903;51.452;7.198;2023-06-10T00:19:12;7.95;;;6.25;;
76964;SDS011;65903;51.452;7.198;2023-06-10T00:20:16;7.82;;;7.03;;
76964;SDS011;65903;51.452;7.198;2023-06-10T00:21:17;7.28;;;6.18;;
76964;SDS011;65903;51.452;7.198;2023-06-10T00:22:17;9.60;;;6.90;;
76964;SDS011;65903;51.452;7.198;2023-06-10T00:23:18;7.82;;;6.22;;
76964;SDS011;65903;51.452;7.198;2023-06-10T00:24:18;8.70;;;7.40;;
76964;SDS011;65903;51.452;7.198;2023-06-10T00:25:19;7.78;;;6.90;;
76964;SDS011;65903;51.452;7.198;2023-06-10T00:26:20;7.93;;;7.07;;
76964;SDS011;65903;51.452;7.198;2023-06-10T00:27:22;7.38;;;6.57;;
76964;SDS011;65903;51.452;7.198;2023-06-10T00:28:23;10.40;;;6.45;;
76964;SDS011;65903;51.452;7.198;2023-06-10T00:29:24;8.45;;;6.07;;
76964;SDS011;65903;51.452;7.198;2023-06-10T00:30:24;8.65;;;6.72;;
76964;SDS011;65903;51.452;7.198;2023-06-10T00:31:25;7.65;;;6.50;;
76964;SDS011;65903;51.452;7.198;2023-06-10T00:32:28;8.00;;;6.40;;
76964;SDS011;65903;51.452;7.198;2023-06-10T00:34:32;9.25;;;6.60;;
76964;SDS011;65903;51.452;7.198;2023-06-10T00:35:33;7.90;;;6.88;;
76964;SDS011;65903;51.452;7.198;2023-06-10T00:36:34;9.20;;;7.80;;
76964;SDS011;65903;51.452;7.198;2023-06-10T00:37:36;9.25;;;7.03;;
76964;SDS011;65903;51.452;7.198;2023-06-10T00:38:37;9.32;;;6.90;;
76964;SDS011;65903;51.452;7.198;2023-06-10T00:39:38;12.25;;;6.70;;
76964;SDS011;65903;51.452;7.198;2023-06-10T00:40:38;9.55;;;7.28;;
76964;SDS011;65903;51.452;7.198;2023-06-10T00:41:40;8.45;;;7.13;;
76964;SDS011;65903;51.452;7.198;2023-06-10T00:42:41;7.97;;;6.63;;
76964;SDS011;65903;51.452;7.198;2023-06-10T00:43:42;8.85;;;7.00;;
76964;SDS011;65903;51.452;7.198;2023-06-10T00:44:43;9.57;;;6.93;;
76964;SDS011;65903;51.452;7.198;2023-06-10T00:45:44;9.18;;;7.10;;
76964;SDS011;65903;51.452;7.198;2023-06-10T00:46:45;9.52;;;7.43;;
76964;SDS011;65903;51.452;7.198;2023-06-10T00:47:46;8.10;;;7.03;;
76964;SDS011;65903;51.452;7.198;2023-06-10T00:48:46;8.75;;;7.70;;
76964;SDS011;65903;51.452;7.198;2023-06-10T00:49:47;9.02;;;6.88;;
76964;SDS011;65903;51.452;7.198;2023-06-10T00:50:48;8.25;;;6.80;;
76964;SDS011;65903;51.452;7.198;2023-06-10T00:51:49;8.93;;;7.07;;
76964;SDS011;65903;51.452;7.198;2023-06-10T00:52:49;8.65;;;7.05;;
76964;SDS011;65903;51.452;7.198;2023-06-10T00:53:52;9.25;;;6.95;;
76964;SDS011;65903;51.452;7.198;2023-06-10T00:54:53;9.73;;;7.75;;
76964;SDS011;65903;51.452;7.198;2023-06-10T00:55:54;10.52;;;7.63;;
76964;SDS011;65903;51.452;7.198;2023-06-10T00:56:55;8.55;;;7.13;;
76964;SDS011;65903;51.452;7.198;2023-06-10T00:57:56;8.95;;;7.55;;
76964;SDS011;65903;51.452;7.198;2023-06-10T00:58:58;8.00;;;7.18;;
76964;SDS011;65903;51.452;7.198;2023-06-10T00:59:59;10.15;;;7.90;;
76964;SDS011;65903;51.452;7.198;2023-06-10T01:00:59;8.90;;;7.25;;
76964;SDS011;65903;51.452;7.198;2023-06-10T01:02:00;9.00;;;7.35;;
76964;SDS011;65903;51.452;7.198;2023-06-10T01:03:03;8.55;;;7.15;;
76964;SDS011;65903;51.452;7.198;2023-06-10T01:04:08;8.85;;;6.95;;
76964;SDS011;65903;51.452;7.198;2023-06-10T01:05:11;11.35;;;7.35;;
76964;SDS011;65903;51.452;7.198;2023-06-10T01:07:40;9.93;;;6.72;;
76964;SDS011;65903;51.452;7.198;2023-06-10T01:08:46;11.63;;;7.68;;
76964;SDS011;65903;51.452;7.198;2023-06-10T01:09:55;8.77;;;7.18;;
76964;SDS011;65903;51.452;7.198;2023-06-10T01:11:04;9.18;;;7.40;;
76964;SDS011;65903;51.452;7.198;2023-06-10T01:12:10;9.80;;;7.43;;
76964;SDS011;65903;51.452;7.198;2023-06-10T01:13:14;13.00;;;7.95;;
76964;SDS011;65903;51.452;7.198;2023-06-10T01:14:16;9.32;;;7.45;;
76964;SDS011;65903;51.452;7.198;2023-06-10T01:15:17;10.43;;;8.00;;
76964;SDS011;65903;51.452;7.198;2023-06-10T01:16:30;11.20;;;7.50;;
76964;SDS011;65903;51.452;7.198;2023-06-10T01:17:31;8.90;;;7.30;;
76964;SDS011;65903;51.452;7.198;2023-06-10T01:18:32;9.75;;;7.03;;
76964;SDS011;65903;51.452;7.198;2023-06-10T01:19:33;9.75;;;7.45;;
76964;SDS011;65903;51.452;7.198;2023-06-10T01:20:34;8.40;;;6.88;;
76964;SDS011;65903;51.452;7.198;2023-06-10T01:21:37;9.45;;;7.38;;
76964;SDS011;65903;51.452;7.198;2023-06-10T01:22:39;10.38;;;6.72;;
76964;SDS011;65903;51.452;7.198;2023-06-10T01:23:39;8.65;;;6.95;;
76964;SDS011;65903;51.452;7.198;2023-06-10T01:24:40;10.32;;;7.93;;
76964;SDS011;65903;51.452;7.198;2023-06-10T01:25:43;12.02;;;7.45;;
76964;SDS011;65903;51.452;7.198;2023-06-10T01:26:48;11.13;;;7.95;;
76964;SDS011;65903;51.452;7.198;2023-06-10T01:27:50;9.38;;;7.43;;
76964;SDS011;65903;51.452;7.198;2023-06-10T01:28:54;9.63;;;7.18;;
76964;SDS011;65903;51.452;7.198;2023-06-10T01:30:17;10.20;;;7.28;;
76964;SDS011;65903;51.452;7.198;2023-06-10T01:32:34;9.13;;;7.15;;
76964;SDS011;65903;51.452;7.198;2023-06-10T01:33:39;9.68;;;7.25;;
76964;SDS011;65903;51.452;7.198;2023-06-10T01:34:42;8.48;;;6.82;;
76964;SDS011;65903;51.452;7.198;2023-06-10T01:35:44;9.35;;;6.97;;
76964;SDS011;65903;51.452;7.198;2023-06-10T01:36:48;11.75;;;7.28;;
76964;SDS011;65903;51.452;7.198;2023-06-10T01:37:49;9.63;;;7.20;;
76964;SDS011;65903;51.452;7.198;2023-06-10T01:38:51;8.88;;;7.20;;
76964;SDS011;65903;51.452;7.198;2023-06-10T01:39:55;11.38;;;7.63;;
76964;SDS011;65903;51.452;7.198;2023-06-10T01:40:58;11.07;;;7.80;;
76964;SDS011;65903;51.452;7.198;2023-06-10T01:41:59;9.73;;;7.45;;
76964;SDS011;65903;51.452;7.198;2023-06-10T01:43:01;9.10;;;7.22;;
76964;SDS011;65903;51.452;7.198;2023-06-10T01:44:02;9.57;;;7.68;;
76964;SDS011;65903;51.452;7.198;2023-06-10T01:45:02;8.65;;;7.30;;
76964;SDS011;65903;51.452;7.198;2023-06-10T01:46:03;9.07;;;7.70;;
76964;SDS011;65903;51.452;7.198;2023-06-10T01:47:05;10.57;;;7.47;;
76964;SDS011;65903;51.452;7.198;2023-06-10T01:48:06;9.80;;;7.30;;
76964;SDS011;65903;51.452;7.198;2023-06-10T01:49:06;9.95;;;7.68;;
76964;SDS011;65903;51.452;7.198;2023-06-10T01:50:07;9.20;;;8.13;;
76964;SDS011;65903;51.452;7.198;2023-06-10T01:51:07;9.55;;;7.97;;
76964;SDS011;65903;51.452;7.198;2023-06-10T01:52:08;9.90;;;6.97;;
76964;SDS011;65903;51.452;7.198;2023-06-10T01:53:09;10.23;;;7.50;;
76964;SDS011;65903;51.452;7.198;2023-06-10T01:54:10;9.68;;;8.18;;
76964;SDS011;65903;51.452;7.198;2023-06-10T01:55:11;9.50;;;7.90;;
76964;SDS011;65903;51.452;7.198;2023-06-10T01:56:12;9.55;;;7.70;;
76964;SDS011;65903;51.452;7.198;2023-06-10T01:57:18;9.68;;;7.72;;
76964;SDS011;65903;51.452;7.198;2023-06-10T01:58:19;11.48;;;9.13;;
76964;SDS011;65903;51.452;7.198;2023-06-10T01:59:20;11.25;;;7.75;;
76964;SDS011;65903;51.452;7.198;2023-06-10T02:00:20;9.43;;;8.02;;
76964;SDS011;65903;51.452;7.198;2023-06-10T02:01:21;10.52;;;7.97;;
76964;SDS011;65903;51.452;7.198;2023-06-10T02:02:22;10.95;;;8.02;;
76964;SDS011;65903;51.452;7.198;2023-06-10T02:03:23;11.48;;;8.32;;
76964;SDS011;65903;51.452;7.198;2023-06-10T02:04:24;9.52;;;7.90;;
76964;SDS011;65903;51.452;7.198;2023-06-10T02:05:28;9.10;;;7.65;;
76964;SDS011;65903;51.452;7.198;2023-06-10T02:06:29;9.90;;;7.70;;
76964;SDS011;65903;51.452;7.198;2023-06-10T02:07:29;13.10;;;8.75;;
76964;SDS011;65903;51.452;7.198;2023-06-10T02:08:30;11.57;;;7.93;;
76964;SDS011;65903;51.452;7.198;2023-06-10T02:09:31;10.25;;;7.75;;
76964;SDS011;65903;51.452;7.198;2023-06-10T02:10:32;11.40;;;9.30;;
76964;SDS011;65903;51.452;7.198;2023-06-10T02:11:33;11.68;;;8.75;;
76964;SDS011;65903;51.452;7.198;2023-06-10T02:12:34;10.57;;;9.07;;
76964;SDS011;65903;51.452;7.198;2023-06-10T02:13:35;10.40;;;8.13;;
76964;SDS011;65903;51.452;7.198;2023-06-10T02:14:35;9.77;;;7.82;;
76964;SDS011;65903;51.452;7.198;2023-06-10T02:15:36;10.50;;;8.07;;
76964;SDS011;65903;51.452;7.198;2023-06-10T02:16:36;12.25;;;8.27;;
76964;SDS011;65903;51.452;7.198;2023-06-10T02:17:37;11.63;;;9.23;;
76964;SDS011;65903;51.452;7.198;2023-06-10T02:18:45;13.75;;;9.20;;
76964;SDS011;65903;51.452;7.198;2023-06-10T02:19:46;11.60;;;8.95;;
76964;SDS011;65903;51.452;7.198;2023-06-10T02:20:52;10.63;;;8.63;;
76964;SDS011;65903;51.452;7.198;2023-06-10T02:21:53;10.70;;;8.73;;
76964;SDS011;65903;51.452;7.198;2023-06-10T02:22:54;10.38;;;8.50;;
76964;SDS011;65903;51.452;7.198;2023-06-10T02:23:55;11.07;;;9.05;;
76964;SDS011;65903;51.452;7.198;2023-06-10T02:24:56;11.48;;;9.50;;
76964;SDS011;65903;51.452;7.198;2023-06-10T02:25:56;10.57;;;7.85;;
76964;SDS011;65903;51.452;7.198;2023-06-10T02:26:57;13.73;;;8.45;;
76964;SDS011;65903;51.452;7.198;2023-06-10T02:28:00;11.80;;;8.57;;
76964;SDS011;65903;51.452;7.198;2023-06-10T02:29:00;10.35;;;8.40;;
76964;SDS011;65903;51.452;7.198;2023-06-10T02:30:01;10.10;;;8.40;;
76964;SDS011;65903;51.452;7.198;2023-06-10T02:31:02;12.10;;;9.48;;
76964;SDS011;65903;51.452;7.198;2023-06-10T02:32:03;11.68;;;8.60;;
76964;SDS011;65903;51.452;7.198;2023-06-10T02:33:04;10.05;;;8.70;;
76964;SDS011;65903;51.452;7.198;2023-06-10T02:34:05;11.02;;;8.68;;
76964;SDS011;65903;51.452;7.198;2023-06-10T02:35:05;10.85;;;8.23;;
76964;SDS011;65903;51.452;7.198;2023-06-10T02:36:07;13.52;;;8.95;;
76964;SDS011;65903;51.452;7.198;2023-06-10T02:37:09;12.35;;;9.07;;
76964;SDS011;65903;51.452;7.198;2023-06-10T02:38:10;10.80;;;8.30;;
76964;SDS011;65903;51.452;7.198;2023-06-10T02:39:10;10.52;;;8.02;;
76964;SDS011;65903;51.452;7.198;2023-06-10T02:40:11;10.85;;;8.65;;
76964;SDS011;65903;51.452;7.198;2023-06-10T02:41:12;11.50;;;8.63;;
76964;SDS011;65903;51.452;7.198;2023-06-10T02:42:13;12.73;;;9.55;;
76964;SDS011;65903;51.452;7.198;2023-06-10T02:43:14;12.50;;;8.63;;
76964;SDS011;65903;51.452;7.198;2023-06-10T02:44:14;10.32;;;8.77;;
76964;SDS011;65903;51.452;7.198;2023-06-10T02:45:15;10.05;;;8.55;;
76964;SDS011;65903;51.452;7.198;2023-06-10T02:46:16;12.35;;;9.02;;
76964;SDS011;65903;51.452;7.198;2023-06-10T02:47:17;12.88;;;9.30;;
76964;SDS011;65903;51.452;7.198;2023-06-10T02:48:18;12.93;;;8.75;;
76964;SDS011;65903;51.452;7.198;2023-06-10T02:49:19;10.30;;;9.05;;
76964;SDS011;65903;51.452;7.198;2023-06-10T02:50:20;12.68;;;9.68;;
76964;SDS011;65903;51.452;7.198;2023-06-10T02:51:21;10.52;;;9.23;;
76964;SDS011;65903;51.452;7.198;2023-06-10T02:52:22;13.07;;;9.40;;
76964;SDS011;65903;51.452;7.198;2023-06-10T02:53:23;11.60;;;9.20;;
76964;SDS011;65903;51.452;7.198;2023-06-10T02:54:23;10.05;;;8.90;;
76964;SDS011;65903;51.452;7.198;2023-06-10T02:55:24;13.02;;;9.48;;
76964;SDS011;65903;51.452;7.198;2023-06-10T02:56:26;11.43;;;9.88;;
76964;SDS011;65903;51.452;7.198;2023-06-10T02:57:27;12.27;;;9.82;;
76964;SDS011;65903;51.452;7.198;2023-06-10T02:58:27;12.80;;;8.70;;
76964;SDS011;65903;51.452;7.198;2023-06-10T02:59:28;14.15;;;9.73;;
76964;SDS011;65903;51.452;7.198;2023-06-10T03:00:29;14.18;;;8.90;;
76964;SDS011;65903;51.452;7.198;2023-06-10T03:01:30;12.43;;;9.25;;
76964;SDS011;65903;51.452;7.198;2023-06-10T03:02:32;16.45;;;9.73;;
76964;SDS011;65903;51.452;7.198;2023-06-10T03:03:32;13.57;;;9.93;;
76964;SDS011;65903;51.452;7.198;2023-06-10T03:04:34;12.98;;;9.45;;
76964;SDS011;65903;51.452;7.198;2023-06-10T03:05:34;13.25;;;8.88;;
76964;SDS011;65903;51.452;7.198;2023-06-10T03:06:35;10.18;;;8.82;;
76964;SDS011;65903;51.452;7.198;2023-06-10T03:07:36;10.93;;;9.65;;
76964;SDS011;65903;51.452;7.198;2023-06-10T03:08:37;11.35;;;9.30;;
76964;SDS011;65903;51.452;7.198;2023-06-10T03:09:38;12.85;;;9.45;;
76964;SDS011;65903;51.452;7.198;2023-06-10T03:10:39;12.45;;;9.50;;
76964;SDS011;65903;51.452;7.198;2023-06-10T03:11:39;12.32;;;9.90;;
76964;SDS011;65903;51.452;7.198;2023-06-10T03:12:40;12.82;;;10.05;;
76964;SDS011;65903;51.452;7.198;2023-06-10T03:13:40;15.80;;;11.05;;
76964;SDS011;65903;51.452;7.198;2023-06-10T03:14:41;11.50;;;9.75;;
76964;SDS011;65903;51.452;7.198;2023-06-10T03:15:42;12.38;;;9.50;;
76964;SDS011;65903;51.452;7.198;2023-06-10T03:16:43;12.25;;;10.18;;
76964;SDS011;65903;51.452;7.198;2023-06-10T03:17:44;13.02;;;10.13;;
76964;SDS011;65903;51.452;7.198;2023-06-10T03:18:45;13.20;;;10.73;;
76964;SDS011;65903;51.452;7.198;2023-06-10T03:19:46;14.13;;;9.73;;
76964;SDS011;65903;51.452;7.198;2023-06-10T03:20:46;12.52;;;10.45;;
76964;SDS011;65903;51.452;7.198;2023-06-10T03:21:49;11.32;;;10.02;;
76964;SDS011;65903;51.452;7.198;2023-06-10T03:22:50;11.13;;;9.82;;
76964;SDS011;65903;51.452;7.198;2023-06-10T03:23:51;14.07;;;10.35;;
76964;SDS011;65903;51.452;7.198;2023-06-10T03:24:52;13.05;;;10.32;;
76964;SDS011;65903;51.452;7.198;2023-06-10T03:25:53;14.65;;;11.43;;
76964;SDS011;65903;51.452;7.198;2023-06-10T03:26:55;13.45;;;10.63;;
76964;SDS011;65903;51.452;7.198;2023-06-10T03:27:56;11.73;;;9.93;;
76964;SDS011;65903;51.452;7.198;2023-06-10T03:28:57;14.57;;;11.10;;
76964;SDS011;65903;51.452;7.198;2023-06-10T03:29:58;13.35;;;9.85;;
76964;SDS011;65903;51.452;7.198;2023-06-10T03:30:59;13.50;;;10.10;;
76964;SDS011;65903;51.452;7.198;2023-06-10T03:32:01;12.88;;;10.57;;
76964;SDS011;65903;51.452;7.198;2023-06-10T03:33:02;14.23;;;10.70;;
76964;SDS011;65903;51.452;7.198;2023-06-10T03:34:02;12.77;;;10.43;;
76964;SDS011;65903;51.452;7.198;2023-06-10T03:35:03;14.48;;;10.68;;
76964;SDS011;65903;51.452;7.198;2023-06-10T03:36:03;13.55;;;10.18;;
76964;SDS011;65903;51.452;7.198;2023-06-10T03:37:04;14.18;;;10.52;;
76964;SDS011;65903;51.452;7.198;2023-06-10T03:38:06;13.98;;;10.18;;
76964;SDS011;65903;51.452;7.198;2023-06-10T03:39:06;13.00;;;10.38;;
76964;SDS011;65903;51.452;7.198;2023-06-10T03:40:07;14.63;;;10.23;;
76964;SDS011;65903;51.452;7.198;2023-06-10T03:41:09;14.27;;;10.63;;
76964;SDS011;65903;51.452;7.198;2023-06-10T03:42:10;15.13;;;10.88;;
76964;SDS011;65903;51.452;7.198;2023-06-10T03:43:10;14.60;;;11.85;;
76964;SDS011;65903;51.452;7.198;2023-06-10T03:44:10;13.02;;;10.68;;
76964;SDS011;65903;51.452;7.198;2023-06-10T03:45:11;13.23;;;10.40;;
76964;SDS011;65903;51.452;7.198;2023-06-10T03:46:12;14.20;;;10.82;;
76964;SDS011;65903;51.452;7.198;2023-06-10T03:47:13;13.40;;;10.95;;
76964;SDS011;65903;51.452;7.198;2023-06-10T03:48:14;13.27;;;10.25;;
76964;SDS011;65903;51.452;7.198;2023-06-10T03:49:15;15.40;;;12.05;;
76964;SDS011;65903;51.452;7.198;2023-06-10T03:50:16;16.23;;;10.23;;
76964;SDS011;65903;51.452;7.198;2023-06-10T03:51:16;14.82;;;11.57;;
76964;SDS011;65903;51.452;7.198;2023-06-10T03:52:17;15.68;;;11.23;;
76964;SDS011;65903;51.452;7.198;2023-06-10T03:53:18;13.77;;;10.98;;
76964;SDS011;65903;51.452;7.198;2023-06-10T03:54:19;12.55;;;10.93;;
76964;SDS011;65903;51.452;7.198;2023-06-10T03:55:20;14.30;;;10.85;;
76964;SDS011;65903;51.452;7.198;2023-06-10T03:56:21;13.77;;;11.38;;
76964;SDS011;65903;51.452;7.198;2023-06-10T03:57:22;13.93;;;12.40;;
76964;SDS011;65903;51.452;7.198;2023-06-10T03:58:22;14.52;;;11.25;;
76964;SDS011;65903;51.452;7.198;2023-06-10T03:59:23;13.82;;;11.15;;
76964;SDS011;65903;51.452;7.198;2023-06-10T04:00:24;15.38;;;11.00;;
76964;SDS011;65903;51.452;7.198;2023-06-10T04:01:26;12.73;;;10.43;;
76964;SDS011;65903;51.452;7.198;2023-06-10T04:02:28;15.00;;;10.82;;
76964;SDS011;65903;51.452;7.198;2023-06-10T04:03:28;13.68;;;11.20;;
76964;SDS011;65903;51.452;7.198;2023-06-10T04:04:31;14.88;;;10.93;;
76964;SDS011;65903;51.452;7.198;2023-06-10T04:05:32;12.73;;;11.43;;
76964;SDS011;65903;51.452;7.198;2023-06-10T04:06:32;13.40;;;11.82;;
76964;SDS011;65903;51.452;7.198;2023-06-10T04:07:33;15.00;;;11.13;;
76964;SDS011;65903;51.452;7.198;2023-06-10T04:08:34;15.70;;;11.77;;
76964;SDS011;65903;51.452;7.198;2023-06-10T04:09:36;13.75;;;11.20;;
76964;SDS011;65903;51.452;7.198;2023-06-10T04:10:37;14.80;;;13.00;;
76964;SDS011;65903;51.452;7.198;2023-06-10T04:11:38;16.65;;;11.57;;
76964;SDS011;65903;51.452;7.198;2023-06-10T04:12:41;13.40;;;10.88;;
76964;SDS011;65903;51.452;7.198;2023-06-10T04:13:43;14.05;;;11.35;;
76964;SDS011;65903;51.452;7.198;2023-06-10T04:14:44;13.88;;;10.75;;
76964;SDS011;65903;51.452;7.198;2023-06-10T04:15:44;16.25;;;11.93;;
76964;SDS011;65903;51.452;7.198;2023-06-10T04:16:45;16.08;;;11.20;;
76964;SDS011;65903;51.452;7.198;2023-06-10T04:17:47;13.93;;;12.10;;
76964;SDS011;65903;51.452;7.198;2023-06-10T04:18:49;13.88;;;11.55;;
76964;SDS011;65903;51.452;7.198;2023-06-10T04:19:49;16.48;;;11.43;;
76964;SDS011;65903;51.452;7.198;2023-06-10T04:20:50;14.07;;;11.70;;
76964;SDS011;65903;51.452;7.198;2023-06-10T04:21:51;15.57;;;11.43;;
76964;SDS011;65903;51.452;7.198;2023-06-10T04:22:52;13.27;;;11.02;;
76964;SDS011;65903;51.452;7.198;2023-06-10T04:23:52;14.93;;;11.65;;
76964;SDS011;65903;51.452;7.198;2023-06-10T04:24:54;14.32;;;11.73;;
76964;SDS011;65903;51.452;7.198;2023-06-10T04:25:55;14.20;;;11.70;;
76964;SDS011;65903;51.452;7.198;2023-06-10T04:26:56;16.17;;;12.38;;
76964;SDS011;65903;51.452;7.198;2023-06-10T04:27:57;16.23;;;13.02;;
76964;SDS011;65903;51.452;7.198;2023-06-10T04:28:58;14.90;;;11.75;;
76964;SDS011;65903;51.452;7.198;2023-06-10T04:29:58;15.20;;;11.52;;
76964;SDS011;65903;51.452;7.198;2023-06-10T04:30:59;15.55;;;11.25;;
76964;SDS011;65903;51.452;7.198;2023-06-10T04:31:59;14.60;;;11.75;;
76964;SDS011;65903;51.452;7.198;2023-06-10T04:33:01;16.40;;;12.20;;
76964;SDS011;65903;51.452;7.198;2023-06-10T04:34:02;16.00;;;11.38;;
76964;SDS011;65903;51.452;7.198;2023-06-10T04:35:04;15.75;;;11.27;;
76964;SDS011;65903;51.452;7.198;2023-06-10T04:36:06;17.00;;;11.88;;
76964;SDS011;65903;51.452;7.198;2023-06-10T04:37:07;15.30;;;10.98;;
76964;SDS011;65903;51.452;7.198;2023-06-10T04:38:08;17.45;;;11.45;;
76964;SDS011;65903;51.452;7.198;2023-06-10T04:39:09;16.10;;;11.70;;
76964;SDS011;65903;51.452;7.198;2023-06-10T04:40:10;15.35;;;12.27;;
76964;SDS011;65903;51.452;7.198;2023-06-10T04:41:11;13.85;;;12.38;;
76964;SDS011;65903;51.452;7.198;2023-06-10T04:42:11;15.25;;;10.68;;
76964;SDS011;65903;51.452;7.198;2023-06-10T04:43:12;14.65;;;12.38;;
76964;SDS011;65903;51.452;7.198;2023-06-10T04:44:13;16.45;;;11.15;;
76964;SDS011;65903;51.452;7.198;2023-06-10T04:45:14;14.68;;;11.10;;
76964;SDS011;65903;51.452;7.198;2023-06-10T04:46:15;13.50;;;10.77;;
76964;SDS011;65903;51.452;7.198;2023-06-10T04:47:16;14.18;;;10.77;;
76964;SDS011;65903;51.452;7.198;2023-06-10T04:48:17;15.43;;;12.40;;
76964;SDS011;65903;51.452;7.198;2023-06-10T04:49:18;13.80;;;11.82;;
76964;SDS011;65903;51.452;7.198;2023-06-10T04:50:19;14.15;;;11.13;;
76964;SDS011;65903;51.452;7.198;2023-06-10T04:51:20;15.57;;;10.13;;
76964;SDS011;65903;51.452;7.198;2023-06-10T04:52:22;15.85;;;10.95;;
76964;SDS011;65903;51.452;7.198;2023-06-10T04:53:22;13.80;;;11.30;;
76964;SDS011;65903;51.452;7.198;2023-06-10T04:54:23;13.13;;;10.90;;
76964;SDS011;65903;51.452;7.198;2023-06-10T04:55:24;11.85;;;10.60;;
76964;SDS011;65903;51.452;7.198;2023-06-10T04:56:25;15.07;;;11.90;;
76964;SDS011;65903;51.452;7.198;2023-06-10T04:57:26;18.58;;;11.35;;
76964;SDS011;65903;51.452;7.198;2023-06-10T04:58:27;16.58;;;11.93;;
76964;SDS011;65903;51.452;7.198;2023-06-10T04:59:28;13.82;;;11.52;;
76964;SDS011;65903;51.452;7.198;2023-06-10T05:00:30;13.35;;;11.30;;
76964;SDS011;65903;51.452;7.198;2023-06-10T05:01:30;14.27;;;10.80;;
76964;SDS011;65903;51.452;7.198;2023-06-10T05:02:30;13.43;;;11.05;;
76964;SDS011;65903;51.452;7.198;2023-06-10T05:03:32;13.68;;;10.65;;
76964;SDS011;65903;51.452;7.198;2023-06-10T05:04:33;16.42;;;10.60;;
76964;SDS011;65903;51.452;7.198;2023-06-10T05:05:34;14.30;;;10.10;;
76964;SDS011;65903;51.452;7.198;2023-06-10T05:06:35;13.82;;;12.10;;
76964;SDS011;65903;51.452;7.198;2023-06-10T05:07:37;13.85;;;11.77;;
76964;SDS011;65903;51.452;7.198;2023-06-10T05:08:38;13.48;;;10.32;;
76964;SDS011;65903;51.452;7.198;2023-06-10T05:09:39;13.23;;;9.57;;
76964;SDS011;65903;51.452;7.198;2023-06-10T05:10:40;13.43;;;10.63;;
76964;SDS011;65903;51.452;7.198;2023-06-10T05:11:41;12.40;;;9.75;;
76964;SDS011;65903;51.452;7.198;2023-06-10T05:12:42;13.38;;;11.02;;
76964;SDS011;65903;51.452;7.198;2023-06-10T05:13:43;12.20;;;9.75;;
76964;SDS011;65903;51.452;7.198;2023-06-10T05:14:44;12.52;;;9.48;;
76964;SDS011;65903;51.452;7.198;2023-06-10T05:15:45;11.43;;;9.95;;
76964;SDS011;65903;51.452;7.198;2023-06-10T05:16:46;12.60;;;9.30;;
76964;SDS011;65903;51.452;7.198;2023-06-10T05:17:47;14.00;;;9.32;;
76964;SDS011;65903;51.452;7.198;2023-06-10T05:18:48;13.98;;;10.15;;
76964;SDS011;65903;51.452;7.198;2023-06-10T05:19:49;12.55;;;9.52;;
76964;SDS011;65903;51.452;7.198;2023-06-10T05:20:49;12.98;;;9.57;;
76964;SDS011;65903;51.452;7.198;2023-06-10T05:21:50;14.45;;;10.40;;
76964;SDS011;65903;51.452;7.198;2023-06-10T05:22:51;13.98;;;9.02;;
76964;SDS011;65903;51.452;7.198;2023-06-10T05:23:52;13.43;;;9.68;;
76964;SDS011;65903;51.452;7.198;2023-06-10T05:24:54;11.18;;;8.68;;
76964;SDS011;65903;51.452;7.198;2023-06-10T05:25:55;10.32;;;9.00;;
76964;SDS011;65903;51.452;7.198;2023-06-10T05:26:55;12.98;;;10.30;;
76964;SDS011;65903;51.452;7.198;2023-06-10T05:27:56;11.30;;;9.63;;
76964;SDS011;65903;51.452;7.198;2023-06-10T05:28:57;11.73;;;8.63;;
76964;SDS011;65903;51.452;7.198;2023-06-10T05:29:59;11.93;;;8.63;;
76964;SDS011;65903;51.452;7.198;2023-06-10T05:31:00;9.82;;;8.02;;
76964;SDS011;65903;51.452;7.198;2023-06-10T05:32:01;13.35;;;8.85;;
76964;SDS011;65903;51.452;7.198;2023-06-10T05:33:04;11.80;;;8.45;;
76964;SDS011;65903;51.452;7.198;2023-06-10T05:34:05;12.38;;;8.27;;
76964;SDS011;65903;51.452;7.198;2023-06-10T05:35:06;12.07;;;8.18;;
76964;SDS011;65903;51.452;7.198;2023-06-10T05:36:07;10.65;;;8.80;;
76964;SDS011;65903;51.452;7.198;2023-06-10T05:37:08;9.50;;;8.25;;
76964;SDS011;65903;51.452;7.198;2023-06-10T05:38:09;10.35;;;8.30;;
76964;SDS011;65903;51.452;7.198;2023-06-10T05:39:10;9.38;;;8.27;;
76964;SDS011;65903;51.452;7.198;2023-06-10T05:40:11;9.93;;;7.97;;
76964;SDS011;65903;51.452;7.198;2023-06-10T05:41:12;10.95;;;8.55;;
76964;SDS011;65903;51.452;7.198;2023-06-10T05:42:13;11.68;;;8.40;;
76964;SDS011;65903;51.452;7.198;2023-06-10T05:43:14;11.18;;;7.22;;
76964;SDS011;65903;51.452;7.198;2023-06-10T05:44:17;10.35;;;7.65;;
76964;SDS011;65903;51.452;7.198;2023-06-10T05:45:17;10.80;;;8.23;;
76964;SDS011;65903;51.452;7.198;2023-06-10T05:46:19;10.07;;;7.78;;
76964;SDS011;65903;51.452;7.198;2023-06-10T05:47:20;10.05;;;7.97;;
76964;SDS011;65903;51.452;7.198;2023-06-10T05:48:21;10.52;;;8.52;;
76964;SDS011;65903;51.452;7.198;2023-06-10T05:49:22;9.18;;;6.93;;
76964;SDS011;65903;51.452;7.198;2023-06-10T05:50:24;13.13;;;8.40;;
76964;SDS011;65903;51.452;7.198;2023-06-10T05:51:24;8.52;;;7.32;;
76964;SDS011;65903;51.452;7.198;2023-06-10T05:52:25;8.52;;;6.80;;
76964;SDS011;65903;51.452;7.198;2023-06-10T05:54:33;10.75;;;8.05;;
76964;SDS011;65903;51.452;7.198;2023-06-10T05:55:34;9.45;;;7.78;;
76964;SDS011;65903;51.452;7.198;2023-06-10T05:56:36;10.68;;;7.43;;
76964;SDS011;65903;51.452;7.198;2023-06-10T05:57:43;9.02;;;7.18;;
76964;SDS011;65903;51.452;7.198;2023-06-10T05:58:45;9.52;;;6.68;;
76964;SDS011;65903;51.452;7.198;2023-06-10T05:59:46;10.73;;;6.95;;
76964;SDS011;65903;51.452;7.198;2023-06-10T06:00:47;9.63;;;7.30;;
76964;SDS011;65903;51.452;7.198;2023-06-10T06:01:48;13.70;;;7.13;;
76964;SDS011;65903;51.452;7.198;2023-06-10T06:02:50;9.82;;;6.82;;
76964;SDS011;65903;51.452;7.198;2023-06-10T06:03:51;11.93;;;7.03;;
76964;SDS011;65903;51.452;7.198;2023-06-10T06:04:52;11.18;;;7.43;;
76964;SDS011;65903;51.452;7.198;2023-06-10T06:05:52;9.48;;;7.28;;
76964;SDS011;65903;51.452;7.198;2023-06-10T06:06:53;10.73;;;6.80;;
76964;SDS011;65903;51.452;7.198;2023-06-10T06:07:54;8.77;;;7.00;;
76964;SDS011;65903;51.452;7.198;2023-06-10T06:08:55;10.20;;;7.38;;